Weil, Louisiana
Current Conditions -  °F | °C
As of 2:53 AM on Sunday 21 Dec 2014 (Local Time) from KAEX Reporting Station
Haze Haze  
Wind Chill: 39°   Ceiling: Unl
Heat Index: 39°   Visibility: 5mi
Dew Point: 38°   Wind: 0mph
Humidity: 96%   Direction: NA
Pressure: 30.15"   Gusts: NA
Location:  31.2912°N, 92.5491°W
Report Text: KAEX 210853Z 00000KT 5SM BR CLR 04/03 A3015 RMK AO2 SLP214 T00390033 58010
Loading
Personal Weather Stations






























Interactive Weather Map New forecast layout! Learn more

10-Day Weather Forecast

Advertisements
Track Severe Weather on mobile